Time;durP1;ratioP1;P1;durP2;ratioP2;P2;SDS_P1;SDS_P2;PMS_P1;PMS_P2;Temp;Humidity;BMP_temperature;BMP_pressure;BME280_temperature;BME280_humidity;BME280_pressure;Samples;Min_cycle;Max_cycle;Signal;HPM_P1;HPM_P2
2022/01/06 00:01:05;;;;;;;3.8;2;;;;;;;;;;;;;
2022/01/06 00:03:31;;;;;;;4.3;2.2;;;;;;;;;;;;;
2022/01/06 00:05:56;;;;;;;2.9;1.9;;;;;;;;;;;;;
2022/01/06 00:08:21;;;;;;;2.1;1.7;;;;;;;;;;;;;
2022/01/06 00:10:49;;;;;;;4.5;2.3;;;;;;;;;;;;;
2022/01/06 00:13:15;;;;;;;5.1;2.5;;;;;;;;;;;;;
2022/01/06 00:15:43;;;;;;;4.7;2.6;;;;;;;;;;;;;
2022/01/06 00:18:19;;;;;;;3.5;2.5;;;;;;;;;;;;;
2022/01/06 00:23:21;;;;;;;2.9;1.8;;;;;;;;;;;;;
2022/01/06 00:25:17;;;;;;;4.5;2.7;;;;;;;;;;;;;
2022/01/06 00:27:42;;;;;;;4.3;3;;;;;;;;;;;;;
2022/01/06 00:30:08;;;;;;;5;2.8;;;;;;;;;;;;;
2022/01/06 00:32:33;;;;;;;3.5;2.2;;;;;;;;;;;;;
2022/01/06 00:34:58;;;;;;;3.3;2;;;;;;;;;;;;;
2022/01/06 00:37:23;;;;;;;2.6;1.7;;;;;;;;;;;;;
2022/01/06 00:39:50;;;;;;;3;2.1;;;;;;;;;;;;;
2022/01/06 00:42:16;;;;;;;3.5;2.1;;;;;;;;;;;;;
2022/01/06 00:44:41;;;;;;;3.1;1.7;;;;;;;;;;;;;
2022/01/06 00:47:06;;;;;;;3.2;1.6;;;;;;;;;;;;;
2022/01/06 00:49:33;;;;;;;3.2;2.1;;;;;;;;;;;;;
2022/01/06 00:51:58;;;;;;;3.1;1.7;;;;;;;;;;;;;
2022/01/06 00:54:24;;;;;;;3.6;1.6;;;;;;;;;;;;;
2022/01/06 00:56:49;;;;;;;2.4;1.8;;;;;;;;;;;;;
2022/01/06 00:59:15;;;;;;;5.5;2.9;;;;;;;;;;;;;
2022/01/06 01:01:40;;;;;;;3.5;2.2;;;;;;;;;;;;;
2022/01/06 01:04:06;;;;;;;5.2;2.4;;;;;;;;;;;;;
2022/01/06 01:06:31;;;;;;;4;2.3;;;;;;;;;;;;;
2022/01/06 01:08:57;;;;;;;5.3;2.3;;;;;;;;;;;;;
2022/01/06 01:11:22;;;;;;;3;1.9;;;;;;;;;;;;;
2022/01/06 01:13:56;;;;;;;3.8;2.2;;;;;;;;;;;;;
2022/01/06 01:16:23;;;;;;;6.3;2.2;;;;;;;;;;;;;
2022/01/06 01:18:45;;;;;;;5.8;2.4;;;;;;;;;;;;;
2022/01/06 01:21:04;;;;;;;3.8;2.1;;;;;;;;;;;;;
2022/01/06 01:23:29;;;;;;;3.6;2.4;;;;;;;;;;;;;
2022/01/06 01:25:54;;;;;;;3;2;;;;;;;;;;;;;
2022/01/06 01:28:20;;;;;;;3.1;2.1;;;;;;;;;;;;;
2022/01/06 01:31:01;;;;;;;2.6;1.9;;;;;;;;;;;;;
2022/01/06 01:33:16;;;;;;;3.5;1.8;;;;;;;;;;;;;
2022/01/06 01:35:35;;;;;;;1.9;1.5;;;;;;;;;;;;;
2022/01/06 01:38:00;;;;;;;2.6;1.7;;;;;;;;;;;;;
2022/01/06 01:40:25;;;;;;;3.1;1.7;;;;;;;;;;;;;
2022/01/06 01:42:51;;;;;;;2.3;1.5;;;;;;;;;;;;;
2022/01/06 01:45:17;;;;;;;3;1.8;;;;;;;;;;;;;
2022/01/06 01:47:44;;;;;;;3.3;1.8;;;;;;;;;;;;;
2022/01/06 01:50:12;;;;;;;2.8;2;;;;;;;;;;;;;
2022/01/06 01:52:32;;;;;;;4.7;2.1;;;;;;;;;;;;;
2022/01/06 01:54:57;;;;;;;2.6;1.9;;;;;;;;;;;;;
2022/01/06 01:57:22;;;;;;;2.8;1.8;;;;;;;;;;;;;
2022/01/06 01:59:48;;;;;;;2.8;2.2;;;;;;;;;;;;;
2022/01/06 02:02:13;;;;;;;3.1;1.8;;;;;;;;;;;;;
2022/01/06 02:04:40;;;;;;;2.4;1.8;;;;;;;;;;;;;
2022/01/06 02:07:05;;;;;;;3.2;2;;;;;;;;;;;;;
2022/01/06 02:09:31;;;;;;;3.1;2.1;;;;;;;;;;;;;
2022/01/06 02:11:56;;;;;;;3.6;2.1;;;;;;;;;;;;;
2022/01/06 02:14:23;;;;;;;3.3;2;;;;;;;;;;;;;
2022/01/06 02:16:48;;;;;;;2.7;1.9;;;;;;;;;;;;;
2022/01/06 02:19:13;;;;;;;3.5;2.1;;;;;;;;;;;;;
2022/01/06 02:21:39;;;;;;;3.7;2.2;;;;;;;;;;;;;
2022/01/06 02:24:06;;;;;;;2.7;1.6;;;;;;;;;;;;;
2022/01/06 02:26:31;;;;;;;2.6;2.1;;;;;;;;;;;;;
2022/01/06 02:28:57;;;;;;;3.5;1.8;;;;;;;;;;;;;
2022/01/06 02:31:22;;;;;;;2.8;1.7;;;;;;;;;;;;;
2022/01/06 02:33:49;;;;;;;2.4;1.4;;;;;;;;;;;;;
2022/01/06 02:36:13;;;;;;;2.6;1.6;;;;;;;;;;;;;
2022/01/06 02:38:38;;;;;;;3;1.6;;;;;;;;;;;;;
2022/01/06 02:41:03;;;;;;;2;1.5;;;;;;;;;;;;;
2022/01/06 02:43:30;;;;;;;2.2;1.4;;;;;;;;;;;;;
2022/01/06 02:45:54;;;;;;;2.6;1.5;;;;;;;;;;;;;
2022/01/06 02:48:21;;;;;;;2.8;1.7;;;;;;;;;;;;;
2022/01/06 02:50:46;;;;;;;3.1;1.6;;;;;;;;;;;;;
2022/01/06 02:53:12;;;;;;;2.1;1.5;;;;;;;;;;;;;
2022/01/06 02:55:37;;;;;;;2.5;1.7;;;;;;;;;;;;;
2022/01/06 02:58:03;;;;;;;2.8;1.6;;;;;;;;;;;;;
2022/01/06 03:00:28;;;;;;;3.4;1.5;;;;;;;;;;;;;
2022/01/06 03:02:54;;;;;;;3.1;1.5;;;;;;;;;;;;;
2022/01/06 03:05:20;;;;;;;2.2;1.4;;;;;;;;;;;;;
2022/01/06 03:07:46;;;;;;;1.9;1.3;;;;;;;;;;;;;
2022/01/06 03:10:13;;;;;;;4.3;1.7;;;;;;;;;;;;;
2022/01/06 03:12:41;;;;;;;2.5;1.5;;;;;;;;;;;;;
2022/01/06 03:15:04;;;;;;;3;1.2;;;;;;;;;;;;;
2022/01/06 03:17:32;;;;;;;2.6;1.2;;;;;;;;;;;;;
2022/01/06 03:19:57;;;;;;;2.8;1.4;;;;;;;;;;;;;
2022/01/06 03:22:22;;;;;;;2.3;1.3;;;;;;;;;;;;;
2022/01/06 03:24:47;;;;;;;3.4;1.5;;;;;;;;;;;;;
2022/01/06 03:27:14;;;;;;;3.3;1.3;;;;;;;;;;;;;
2022/01/06 03:29:39;;;;;;;2;1.1;;;;;;;;;;;;;
2022/01/06 03:32:05;;;;;;;3.1;1.3;;;;;;;;;;;;;
2022/01/06 03:34:31;;;;;;;2.9;1.3;;;;;;;;;;;;;
2022/01/06 03:36:56;;;;;;;2;1.2;;;;;;;;;;;;;
2022/01/06 03:39:21;;;;;;;1.6;1.1;;;;;;;;;;;;;
2022/01/06 03:41:47;;;;;;;3.1;1.4;;;;;;;;;;;;;
2022/01/06 03:44:11;;;;;;;2.9;1.2;;;;;;;;;;;;;
2022/01/06 03:46:38;;;;;;;1.6;1.1;;;;;;;;;;;;;
2022/01/06 03:49:03;;;;;;;2.4;1.4;;;;;;;;;;;;;
2022/01/06 03:51:29;;;;;;;2.8;1.4;;;;;;;;;;;;;
2022/01/06 03:53:54;;;;;;;4.6;1.2;;;;;;;;;;;;;
2022/01/06 03:56:20;;;;;;;4.4;1.5;;;;;;;;;;;;;
2022/01/06 03:58:45;;;;;;;2.8;1.3;;;;;;;;;;;;;
2022/01/06 04:02:31;;;;;;;1.8;1.3;;;;;;;1.01;83.37891;935.2346;;;;
2022/01/06 04:04:56;;;;;;;4.2;1.2;;;;;;;0.98;83.99707;935.2125;;;;
2022/01/06 04:07:25;;;;;;;2.5;1.3;;;;;;;0.97;84.37402;935.2341;;;;
2022/01/06 04:09:50;;;;;;;1.2;1;;;;;;;1.04;84.21973;935.2865;;;;
2022/01/06 04:12:19;;;;;;;2.4;1.2;;;;;;;0.97;84.24023;935.3094;;;;
2022/01/06 04:14:44;;;;;;;2.1;1.3;;;;;;;0.62;85.87695;935.3011;;;;
2022/01/06 04:17:15;;;;;;;1.6;1.2;;;;;;;0.73;86.11133;935.3401;;;;
2022/01/06 04:19:45;;;;;;;3.1;1.4;;;;;;;0.8;86.1709;935.3931;;;;
2022/01/06 04:22:11;;;;;;;3.4;1.5;;;;;;;0.89;85.39844;935.3792;;;;
2022/01/06 04:24:39;;;;;;;3.3;1.4;;;;;;;0.85;84.90918;935.4009;;;;
2022/01/06 04:27:04;;;;;;;1.7;1.5;;;;;;;0.93;84.73438;935.3876;;;;
2022/01/06 04:29:32;;;;;;;3.8;1.4;;;;;;;1.01;84.63867;935.4853;;;;
2022/01/06 04:31:57;;;;;;;2.9;1.5;;;;;;;1.07;84.1709;935.4839;;;;
2022/01/06 04:34:25;;;;;;;2.5;1.6;;;;;;;1.1;84.1875;935.5335;;;;
2022/01/06 04:36:54;;;;;;;1.4;1.3;;;;;;;1.15;83.91699;935.5613;;;;
2022/01/06 04:39:16;;;;;;;2.2;1.3;;;;;;;1.11;84.70313;935.5926;;;;
2022/01/06 04:41:43;;;;;;;2.3;1.3;;;;;;;1.17;83.95605;935.5614;;;;
2022/01/06 04:44:08;;;;;;;2.8;1.3;;;;;;;1.19;83.25586;935.6492;;;;
2022/01/06 04:46:35;;;;;;;2.9;1.1;;;;;;;1.14;81.92871;935.5949;;;;
2022/01/06 04:49:00;;;;;;;3.1;1.4;;;;;;;1.15;82.34375;935.6258;;;;
2022/01/06 04:51:28;;;;;;;2.8;1.3;;;;;;;0.64;81.88672;935.6661;;;;
2022/01/06 04:53:53;;;;;;;2.4;1.2;;;;;;;0.83;81.82324;935.774;;;;
2022/01/06 04:56:20;;;;;;;4.5;3.1;;;;;;;0.84;83.37793;935.7744;;;;
2022/01/06 04:58:45;;;;;;;3.2;2;;;;;;;;;;;;;
2022/01/06 05:01:12;;;;;;;2.6;1.6;;;;;;;;;;;;;
2022/01/06 05:03:37;;;;;;;4;1.6;;;;;;;;;;;;;
2022/01/06 05:06:02;;;;;;;2.2;1.4;;;;;;;;;;;;;
2022/01/06 05:08:29;;;;;;;2.9;1.3;;;;;;;;;;;;;
2022/01/06 05:10:53;;;;;;;2.6;1.4;;;;;;;;;;;;;
2022/01/06 05:13:18;;;;;;;2.9;1.8;;;;;;;;;;;;;
2022/01/06 05:15:43;;;;;;;2.7;1.4;;;;;;;;;;;;;
2022/01/06 05:18:09;;;;;;;2.8;1.6;;;;;;;;;;;;;
2022/01/06 05:20:37;;;;;;;2.9;1.9;;;;;;;;;;;;;
2022/01/06 05:23:00;;;;;;;1.4;1.1;;;;;;;;;;;;;
2022/01/06 05:25:27;;;;;;;1.8;1.2;;;;;;;;;;;;;
2022/01/06 05:27:50;;;;;;;2;1;;;;;;;;;;;;;
2022/01/06 05:30:18;;;;;;;2;0.9;;;;;;;;;;;;;
2022/01/06 05:32:43;;;;;;;1.9;1.2;;;;;;;;;;;;;
2022/01/06 05:35:08;;;;;;;1.5;1.3;;;;;;;;;;;;;
2022/01/06 05:37:34;;;;;;;3.5;1.7;;;;;;;;;;;;;
2022/01/06 05:39:59;;;;;;;3.5;1.9;;;;;;;;;;;;;
2022/01/06 05:42:24;;;;;;;3.8;2;;;;;;;;;;;;;
2022/01/06 05:44:50;;;;;;;4.8;2.6;;;;;;;;;;;;;
2022/01/06 05:47:15;;;;;;;3.5;2.1;;;;;;;;;;;;;
2022/01/06 05:49:41;;;;;;;2.6;1.6;;;;;;;;;;;;;
2022/01/06 05:52:06;;;;;;;2.9;1.6;;;;;;;;;;;;;
2022/01/06 05:54:32;;;;;;;2.9;1.8;;;;;;;;;;;;;
2022/01/06 05:56:57;;;;;;;5.2;2;;;;;;;;;;;;;
2022/01/06 05:59:24;;;;;;;8.7;7.8;;;;;;;;;;;;;
2022/01/06 06:01:49;;;;;;;5;2.6;;;;;;;;;;;;;
2022/01/06 06:04:16;;;;;;;3.8;2.8;;;;;;;;;;;;;
2022/01/06 06:06:40;;;;;;;4;3.4;;;;;;;;;;;;;
2022/01/06 06:09:06;;;;;;;3.6;2.5;;;;;;;;;;;;;
2022/01/06 06:11:31;;;;;;;4.3;2.4;;;;;;;;;;;;;
2022/01/06 06:13:57;;;;;;;5.7;3.1;;;;;;;;;;;;;
2022/01/06 06:16:22;;;;;;;3.9;3.3;;;;;;;;;;;;;
2022/01/06 06:18:49;;;;;;;4.1;2.7;;;;;;;;;;;;;
2022/01/06 06:21:15;;;;;;;2.9;2.2;;;;;;;;;;;;;
2022/01/06 06:23:42;;;;;;;2.9;1.9;;;;;;;;;;;;;
2022/01/06 06:26:06;;;;;;;3.4;1.9;;;;;;;;;;;;;
2022/01/06 06:28:34;;;;;;;2.5;1.6;;;;;;;;;;;;;
2022/01/06 06:30:59;;;;;;;3;1.7;;;;;;;;;;;;;
2022/01/06 06:33:24;;;;;;;3.6;2.3;;;;;;;;;;;;;
2022/01/06 06:35:49;;;;;;;2.9;1.8;;;;;;;;;;;;;
2022/01/06 06:38:16;;;;;;;2.2;1.7;;;;;;;;;;;;;
2022/01/06 06:40:41;;;;;;;4.5;1.8;;;;;;;;;;;;;
2022/01/06 06:43:07;;;;;;;5.4;1.9;;;;;;;;;;;;;
2022/01/06 06:45:32;;;;;;;3.6;1.7;;;;;;;;;;;;;
2022/01/06 06:47:59;;;;;;;3.6;2.1;;;;;;;;;;;;;
2022/01/06 06:50:24;;;;;;;2.7;1.6;;;;;;;;;;;;;
2022/01/06 06:52:50;;;;;;;2.9;2.2;;;;;;;;;;;;;
2022/01/06 06:55:15;;;;;;;2.4;2.2;;;;;;;;;;;;;
2022/01/06 06:57:42;;;;;;;3.9;2.6;;;;;;;;;;;;;
2022/01/06 07:00:07;;;;;;;4.1;2.6;;;;;;;;;;;;;
2022/01/06 07:02:32;;;;;;;2.9;1.5;;;;;;;;;;;;;
2022/01/06 07:04:57;;;;;;;2.9;1.2;;;;;;;;;;;;;
2022/01/06 07:07:25;;;;;;;4.3;2.1;;;;;;;;;;;;;
2022/01/06 07:09:50;;;;;;;2.6;1.5;;;;;;;;;;;;;
2022/01/06 07:12:16;;;;;;;3.8;1.9;;;;;;;;;;;;;
2022/01/06 07:14:41;;;;;;;3.7;2.3;;;;;;;;;;;;;
2022/01/06 07:17:07;;;;;;;8.1;4.6;;;;;;;;;;;;;
2022/01/06 07:19:32;;;;;;;19.4;12;;;;;;;;;;;;;
2022/01/06 07:21:57;;;;;;;21.7;12.2;;;;;;;;;;;;;
2022/01/06 07:24:22;;;;;;;25.1;12.9;;;;;;;;;;;;;
2022/01/06 07:26:49;;;;;;;16.1;8.8;;;;;;;;;;;;;
2022/01/06 07:29:15;;;;;;;11;6.3;;;;;;;;;;;;;
2022/01/06 07:31:40;;;;;;;8.1;4.3;;;;;;;;;;;;;
2022/01/06 07:34:05;;;;;;;10.2;6.2;;;;;;;;;;;;;
2022/01/06 07:36:31;;;;;;;17.2;11.5;;;;;;;;;;;;;
2022/01/06 07:38:56;;;;;;;8.7;4.4;;;;;;;;;;;;;
2022/01/06 07:41:22;;;;;;;27.6;13.3;;;;;;;;;;;;;
2022/01/06 07:43:48;;;;;;;7;4.7;;;;;;;;;;;;;
2022/01/06 07:46:13;;;;;;;4;3.1;;;;;;;;;;;;;
2022/01/06 07:48:48;;;;;;;7.6;6.3;;;;;;;;;;;;;
2022/01/06 07:51:03;;;;;;;6.2;5.6;;;;;;;;;;;;;
2022/01/06 07:53:30;;;;;;;5.5;4.7;;;;;;;;;;;;;
2022/01/06 07:55:55;;;;;;;5.7;4.1;;;;;;;;;;;;;
2022/01/06 07:58:21;;;;;;;14.7;10.1;;;;;;;;;;;;;
2022/01/06 08:00:46;;;;;;;15.2;10.5;;;;;;;;;;;;;
2022/01/06 08:03:13;;;;;;;10.5;8.4;;;;;;;;;;;;;
2022/01/06 08:05:38;;;;;;;8.1;6.5;;;;;;;;;;;;;
2022/01/06 08:08:03;;;;;;;29;21.5;;;;;;;;;;;;;
2022/01/06 08:10:28;;;;;;;3.3;2.8;;;;;;;;;;;;;
2022/01/06 08:12:55;;;;;;;2.7;1.5;;;;;;;;;;;;;
2022/01/06 08:15:20;;;;;;;3.2;1.9;;;;;;;;;;;;;
2022/01/06 08:17:46;;;;;;;2.7;1.7;;;;;;;;;;;;;
2022/01/06 08:20:11;;;;;;;3.1;1.9;;;;;;;;;;;;;
2022/01/06 08:22:38;;;;;;;3.9;2.1;;;;;;;;;;;;;
2022/01/06 08:25:02;;;;;;;3.9;1.8;;;;;;;;;;;;;
2022/01/06 08:27:28;;;;;;;3;1.7;;;;;;;;;;;;;
2022/01/06 08:29:53;;;;;;;3.1;2.2;;;;;;;;;;;;;
2022/01/06 08:32:19;;;;;;;4;2;;;;;;;;;;;;;
2022/01/06 08:34:44;;;;;;;3.4;1.9;;;;;;;;;;;;;
2022/01/06 08:37:11;;;;;;;2.7;1.9;;;;;;;;;;;;;
2022/01/06 08:39:36;;;;;;;4.4;1.8;;;;;;;;;;;;;
2022/01/06 08:42:02;;;;;;;3.2;1.8;;;;;;;;;;;;;
2022/01/06 08:44:27;;;;;;;5;2.6;;;;;;;;;;;;;
2022/01/06 08:46:53;;;;;;;8.8;4.8;;;;;;;;;;;;;
2022/01/06 08:49:18;;;;;;;11.7;6.2;;;;;;;;;;;;;
2022/01/06 08:51:43;;;;;;;6.7;3.5;;;;;;;;;;;;;
2022/01/06 08:54:08;;;;;;;2.7;2.2;;;;;;;;;;;;;
2022/01/06 08:56:34;;;;;;;5.1;2.3;;;;;;;;;;;;;
2022/01/06 08:58:59;;;;;;;6.5;3.1;;;;;;;;;;;;;
2022/01/06 09:01:26;;;;;;;5.6;3.1;;;;;;;;;;;;;
2022/01/06 09:03:51;;;;;;;4.7;3.1;;;;;;;;;;;;;
2022/01/06 09:06:16;;;;;;;4.1;3.2;;;;;;;;;;;;;
2022/01/06 09:08:42;;;;;;;4.8;2.7;;;;;;;;;;;;;
2022/01/06 09:11:08;;;;;;;5.4;3;;;;;;;;;;;;;
2022/01/06 09:13:33;;;;;;;2.6;2;;;;;;;;;;;;;
2022/01/06 09:16:00;;;;;;;2.8;1.8;;;;;;;;;;;;;
2022/01/06 09:18:25;;;;;;;2;1.7;;;;;;;;;;;;;
2022/01/06 09:20:50;;;;;;;3.3;2.8;;;;;;;;;;;;;
2022/01/06 09:23:15;;;;;;;2.3;1.4;;;;;;;;;;;;;
2022/01/06 09:25:42;;;;;;;2.1;1.7;;;;;;;;;;;;;
2022/01/06 09:28:06;;;;;;;1.7;1.5;;;;;;;;;;;;;
2022/01/06 09:30:32;;;;;;;2;1.5;;;;;;;;;;;;;
2022/01/06 09:32:58;;;;;;;3.7;2.1;;;;;;;;;;;;;
2022/01/06 09:35:24;;;;;;;3.4;1.9;;;;;;;;;;;;;
2022/01/06 09:37:56;;;;;;;2.9;2;;;;;;;;;;;;;
2022/01/06 09:40:15;;;;;;;3.3;2.1;;;;;;;;;;;;;
2022/01/06 09:42:40;;;;;;;2.9;1.9;;;;;;;;;;;;;
2022/01/06 09:45:05;;;;;;;18.5;11.9;;;;;;;;;;;;;
2022/01/06 09:47:31;;;;;;;89.6;47.9;;;;;;;;;;;;;
2022/01/06 09:49:55;;;;;;;8.4;4.6;;;;;;;;;;;;;
2022/01/06 09:52:20;;;;;;;20.8;12;;;;;;;;;;;;;
2022/01/06 09:54:47;;;;;;;9.8;5.7;;;;;;;;;;;;;
2022/01/06 09:57:14;;;;;;;1.7;1.4;;;;;;;;;;;;;
2022/01/06 09:59:41;;;;;;;3.3;1.6;;;;;;;;;;;;;
2022/01/06 10:02:04;;;;;;;3.1;1.4;;;;;;;;;;;;;
2022/01/06 10:04:45;;;;;;;2.7;1.6;;;;;;;;;;;;;
2022/01/06 10:07:06;;;;;;;1.2;1.1;;;;;;;;;;;;;
2022/01/06 10:09:33;;;;;;;1.9;1.1;;;;;;;;;;;;;
2022/01/06 10:11:58;;;;;;;1.5;1.1;;;;;;;;;;;;;
2022/01/06 10:14:31;;;;;;;1.4;1.1;;;;;;;;;;;;;
2022/01/06 10:16:52;;;;;;;1.7;1;;;;;;;;;;;;;
2022/01/06 10:19:17;;;;;;;1.5;1.1;;;;;;;;;;;;;
2022/01/06 10:21:43;;;;;;;2.3;1.2;;;;;;;;;;;;;
2022/01/06 10:24:08;;;;;;;1.3;1;;;;;;;;;;;;;
2022/01/06 10:26:34;;;;;;;1.3;1.2;;;;;;;;;;;;;
2022/01/06 10:28:59;;;;;;;1.7;0.9;;;;;;;;;;;;;
2022/01/06 10:31:24;;;;;;;1.1;0.5;;;;;;;;;;;;;
2022/01/06 10:33:49;;;;;;;1.8;0.6;;;;;;;;;;;;;
2022/01/06 10:36:15;;;;;;;2.1;0.8;;;;;;;;;;;;;
2022/01/06 10:38:40;;;;;;;2.1;1.3;;;;;;;;;;;;;
2022/01/06 10:41:07;;;;;;;2.1;1.5;;;;;;;;;;;;;
2022/01/06 10:43:32;;;;;;;3;1.9;;;;;;;;;;;;;
2022/01/06 10:45:58;;;;;;;2.8;1.9;;;;;;;;;;;;;
2022/01/06 10:48:23;;;;;;;2.5;1.9;;;;;;;;;;;;;
2022/01/06 10:50:49;;;;;;;3.4;1.7;;;;;;;;;;;;;
2022/01/06 10:53:14;;;;;;;3;2.2;;;;;;;;;;;;;
2022/01/06 10:55:39;;;;;;;2;1.4;;;;;;;;;;;;;
2022/01/06 10:58:05;;;;;;;1.8;1.7;;;;;;;;;;;;;
2022/01/06 11:00:30;;;;;;;3.6;2.3;;;;;;;;;;;;;
2022/01/06 11:02:55;;;;;;;2.9;1.4;;;;;;;;;;;;;
2022/01/06 11:05:21;;;;;;;3.7;2.4;;;;;;;;;;;;;
2022/01/06 11:07:46;;;;;;;11.9;5.6;;;;;;;;;;;;;
2022/01/06 11:10:19;;;;;;;9.2;5.1;;;;;;;;;;;;;
2022/01/06 11:12:37;;;;;;;6.3;4.2;;;;;;;;;;;;;
2022/01/06 11:15:02;;;;;;;6.6;4;;;;;;;;;;;;;
2022/01/06 11:17:28;;;;;;;4.8;3.5;;;;;;;;;;;;;
2022/01/06 11:19:53;;;;;;;8.6;4.6;;;;;;;;;;;;;
2022/01/06 11:22:21;;;;;;;4.1;3;;;;;;;;;;;;;
2022/01/06 11:24:46;;;;;;;5.4;2.8;;;;;;;;;;;;;
2022/01/06 11:27:12;;;;;;;3.2;2.4;;;;;;;;;;;;;
2022/01/06 11:29:37;;;;;;;10.5;5.4;;;;;;;;;;;;;
2022/01/06 11:32:02;;;;;;;11.3;6.1;;;;;;;;;;;;;
2022/01/06 11:34:28;;;;;;;4.8;2.8;;;;;;;;;;;;;
2022/01/06 11:36:54;;;;;;;7.1;4.2;;;;;;;;;;;;;
2022/01/06 11:39:18;;;;;;;4.8;3;;;;;;;;;;;;;
2022/01/06 11:41:44;;;;;;;9.2;4.8;;;;;;;;;;;;;
2022/01/06 11:44:09;;;;;;;5.4;3.7;;;;;;;;;;;;;
2022/01/06 11:46:35;;;;;;;5.5;3.6;;;;;;;;;;;;;
2022/01/06 11:49:00;;;;;;;4.8;3.2;;;;;;;;;;;;;
2022/01/06 11:51:27;;;;;;;5.4;3.6;;;;;;;;;;;;;
2022/01/06 11:53:52;;;;;;;3.8;2.5;;;;;;;;;;;;;
2022/01/06 11:56:17;;;;;;;4.1;2.4;;;;;;;;;;;;;
2022/01/06 11:58:42;;;;;;;3.5;2.2;;;;;;;;;;;;;
2022/01/06 12:01:08;;;;;;;3.5;2.3;;;;;;;;;;;;;
2022/01/06 12:03:35;;;;;;;2.9;2.6;;;;;;;;;;;;;
2022/01/06 12:06:00;;;;;;;2.6;2.2;;;;;;;;;;;;;
2022/01/06 12:08:25;;;;;;;2.8;1.9;;;;;;;;;;;;;
2022/01/06 12:10:50;;;;;;;2.4;1.7;;;;;;;;;;;;;
2022/01/06 12:13:16;;;;;;;2.8;1.7;;;;;;;;;;;;;
2022/01/06 12:15:41;;;;;;;2.5;1.5;;;;;;;;;;;;;
2022/01/06 12:18:08;;;;;;;3.1;1.9;;;;;;;;;;;;;
2022/01/06 12:20:32;;;;;;;2.2;1.5;;;;;;;;;;;;;
2022/01/06 12:22:58;;;;;;;1.8;1.6;;;;;;;;;;;;;
2022/01/06 12:25:23;;;;;;;2.7;1.9;;;;;;;;;;;;;
2022/01/06 12:27:49;;;;;;;2.6;1.9;;;;;;;;;;;;;
2022/01/06 12:30:14;;;;;;;3.9;2.1;;;;;;;;;;;;;
2022/01/06 12:32:40;;;;;;;4.8;2.6;;;;;;;;;;;;;
2022/01/06 12:35:08;;;;;;;9.6;4.1;;;;;;;;;;;;;
2022/01/06 12:37:33;;;;;;;9.5;5.9;;;;;;;;;;;;;
2022/01/06 12:40:00;;;;;;;2.2;1.7;;;;;;;;;;;;;
2022/01/06 12:42:24;;;;;;;3.3;2.5;;;;;;;;;;;;;
2022/01/06 12:44:49;;;;;;;4.5;2.4;;;;;;;;;;;;;
2022/01/06 12:47:14;;;;;;;3.9;2.4;;;;;;;;;;;;;
2022/01/06 12:49:53;;;;;;;3.2;1.8;;;;;;;;;;;;;
2022/01/06 12:52:17;;;;;;;2.1;1.6;;;;;;;;;;;;;
2022/01/06 12:54:43;;;;;;;1.9;1.5;;;;;;;;;;;;;
2022/01/06 12:57:11;;;;;;;3.4;1.9;;;;;;;;;;;;;
2022/01/06 12:59:34;;;;;;;2.2;1.9;;;;;;;;;;;;;
2022/01/06 13:01:59;;;;;;;3.6;2.8;;;;;;;;;;;;;
2022/01/06 13:04:25;;;;;;;4.1;2.7;;;;;;;;;;;;;
2022/01/06 13:06:50;;;;;;;3.8;2.4;;;;;;;;;;;;;
2022/01/06 13:09:15;;;;;;;5.4;3.2;;;;;;;;;;;;;
2022/01/06 13:11:45;;;;;;;3.4;2.6;;;;;;;;;;;;;
2022/01/06 13:14:08;;;;;;;2.2;2;;;;;;;;;;;;;
2022/01/06 13:16:35;;;;;;;3.6;2;;;;;;;;;;;;;
2022/01/06 13:18:59;;;;;;;2.5;1.8;;;;;;;;;;;;;
2022/01/06 13:21:27;;;;;;;3.3;2.1;;;;;;;;;;;;;
2022/01/06 13:23:49;;;;;;;2.3;1.9;;;;;;;;;;;;;
2022/01/06 13:26:15;;;;;;;2.2;1.8;;;;;;;;;;;;;
2022/01/06 13:28:41;;;;;;;2.6;1.8;;;;;;;;;;;;;
2022/01/06 13:31:08;;;;;;;3.2;2.1;;;;;;;;;;;;;
2022/01/06 13:33:33;;;;;;;3.1;1.8;;;;;;;;;;;;;
2022/01/06 13:35:58;;;;;;;5.7;2.9;;;;;;;;;;;;;
2022/01/06 13:38:23;;;;;;;2.8;1.8;;;;;;;;;;;;;
2022/01/06 13:40:49;;;;;;;2.7;1.7;;;;;;;;;;;;;
2022/01/06 13:43:17;;;;;;;2.8;1.6;;;;;;;;;;;;;
2022/01/06 13:45:44;;;;;;;2.1;1.4;;;;;;;;;;;;;
2022/01/06 13:48:19;;;;;;;1.2;1.1;;;;;;;;;;;;;
2022/01/06 13:51:12;;;;;;;2.1;1.5;;;;;;;;;;;;;
2022/01/06 13:52:55;;;;;;;1.5;1.4;;;;;;;;;;;;;
2022/01/06 13:55:20;;;;;;;1.5;1.4;;;;;;;;;;;;;
2022/01/06 13:57:45;;;;;;;3.4;2.3;;;;;;;;;;;;;
2022/01/06 14:00:11;;;;;;;3.4;2.5;;;;;;;;;;;;;
2022/01/06 14:02:36;;;;;;;5.5;2.6;;;;;;;;;;;;;
2022/01/06 14:05:02;;;;;;;4.5;2.8;;;;;;;;;;;;;
2022/01/06 14:07:27;;;;;;;4.2;2.9;;;;;;;;;;;;;
2022/01/06 14:09:53;;;;;;;4.5;2.7;;;;;;;;;;;;;
2022/01/06 14:12:18;;;;;;;5.6;4;;;;;;;;;;;;;
2022/01/06 14:14:45;;;;;;;5.1;2.2;;;;;;;;;;;;;
2022/01/06 14:17:10;;;;;;;4.2;2.8;;;;;;;;;;;;;
2022/01/06 14:19:38;;;;;;;3.7;2.7;;;;;;;;;;;;;
2022/01/06 14:22:01;;;;;;;5.2;2.7;;;;;;;;;;;;;
2022/01/06 14:24:31;;;;;;;4.1;2.6;;;;;;;;;;;;;
2022/01/06 14:26:51;;;;;;;3.1;2;;;;;;;;;;;;;
2022/01/06 14:29:17;;;;;;;5.4;2.2;;;;;;;;;;;;;
2022/01/06 14:31:42;;;;;;;5.9;2.4;;;;;;;;;;;;;
2022/01/06 14:34:09;;;;;;;6.5;2.6;;;;;;;;;;;;;
2022/01/06 14:36:34;;;;;;;4;2.3;;;;;;;;;;;;;
2022/01/06 14:39:01;;;;;;;5.6;2.6;;;;;;;;;;;;;
2022/01/06 14:41:26;;;;;;;5.3;2.6;;;;;;;;;;;;;
2022/01/06 14:43:52;;;;;;;4;2.2;;;;;;;;;;;;;
2022/01/06 14:46:17;;;;;;;5.2;2.9;;;;;;;;;;;;;
2022/01/06 14:48:43;;;;;;;4.9;2.9;;;;;;;;;;;;;
2022/01/06 14:51:08;;;;;;;5.8;3;;;;;;;;;;;;;
2022/01/06 14:53:33;;;;;;;4.2;2.6;;;;;;;;;;;;;
2022/01/06 14:55:58;;;;;;;3.3;2.4;;;;;;;;;;;;;
2022/01/06 14:58:25;;;;;;;7.2;2.7;;;;;;;;;;;;;
2022/01/06 15:00:49;;;;;;;5.5;2.3;;;;;;;;;;;;;
2022/01/06 15:03:18;;;;;;;5.1;3.1;;;;;;;;;;;;;
2022/01/06 15:05:41;;;;;;;6.4;3.4;;;;;;;;;;;;;
2022/01/06 15:08:06;;;;;;;4.1;2.7;;;;;;;;;;;;;
2022/01/06 15:10:31;;;;;;;6.1;2.7;;;;;;;;;;;;;
2022/01/06 15:12:58;;;;;;;5.1;2.3;;;;;;;;;;;;;
2022/01/06 15:15:24;;;;;;;4.6;2.7;;;;;;;;;;;;;
2022/01/06 15:17:50;;;;;;;6.1;3;;;;;;;;;;;;;
2022/01/06 15:20:15;;;;;;;3.6;2.8;;;;;;;;;;;;;
2022/01/06 15:22:40;;;;;;;6.8;3.1;;;;;;;;;;;;;
2022/01/06 15:25:05;;;;;;;5.4;3.1;;;;;;;;;;;;;
2022/01/06 15:27:31;;;;;;;8.6;4.9;;;;;;;;;;;;;
2022/01/06 15:29:57;;;;;;;7.5;5.5;;;;;;;;;;;;;
2022/01/06 15:32:24;;;;;;;7.4;5.2;;;;;;;;;;;;;
2022/01/06 15:34:48;;;;;;;5.7;3.5;;;;;;;;;;;;;
2022/01/06 15:37:14;;;;;;;6.9;4.3;;;;;;;;;;;;;
2022/01/06 15:39:39;;;;;;;6.3;4;;;;;;;;;;;;;
2022/01/06 15:42:05;;;;;;;7.8;4.7;;;;;;;;;;;;;
2022/01/06 15:44:30;;;;;;;33.5;20;;;;;;;;;;;;;
2022/01/06 15:46:56;;;;;;;12.5;6.8;;;;;;;;;;;;;
2022/01/06 15:49:21;;;;;;;7;4;;;;;;;;;;;;;
2022/01/06 15:51:47;;;;;;;8.6;5;;;;;;;;;;;;;
2022/01/06 15:54:12;;;;;;;9.9;6.9;;;;;;;;;;;;;
2022/01/06 15:56:40;;;;;;;10.6;6.1;;;;;;;;;;;;;
2022/01/06 15:59:05;;;;;;;11.7;7.2;;;;;;;;;;;;;
2022/01/06 16:06:23;;;;;;;10;5.3;;;;;;;;;;;;;
2022/01/06 16:08:51;;;;;;;10.9;5.8;;;;;;;;;;;;;
2022/01/06 16:11:17;;;;;;;13.3;7.7;;;;;;;;;;;;;
2022/01/06 16:13:42;;;;;;;9;6.2;;;;;;;;;;;;;
2022/01/06 16:16:07;;;;;;;7.8;5.1;;;;;;;;;;;;;
2022/01/06 16:18:33;;;;;;;8.4;5.5;;;;;;;;;;;;;
2022/01/06 16:20:58;;;;;;;9.4;6;;;;;;;;;;;;;
2022/01/06 16:23:24;;;;;;;9.3;5.7;;;;;;;;;;;;;
2022/01/06 16:25:49;;;;;;;8.9;6.4;;;;;;;;;;;;;
2022/01/06 16:28:15;;;;;;;9;6;;;;;;;;;;;;;
2022/01/06 16:30:40;;;;;;;8.1;6;;;;;;;;;;;;;
2022/01/06 16:33:05;;;;;;;8.9;6.4;;;;;;;;;;;;;
2022/01/06 16:35:31;;;;;;;21.9;11.5;;;;;;;;;;;;;
2022/01/06 16:37:56;;;;;;;11.9;7.8;;;;;;;;;;;;;
2022/01/06 16:40:22;;;;;;;10.4;7;;;;;;;;;;;;;
2022/01/06 16:42:47;;;;;;;15.6;9.6;;;;;;;;;;;;;
2022/01/06 16:45:15;;;;;;;13.2;10.4;;;;;;;;;;;;;
2022/01/06 16:47:40;;;;;;;72.3;37.7;;;;;;;;;;;;;
2022/01/06 16:50:05;;;;;;;78.5;41.6;;;;;;;;;;;;;
2022/01/06 16:52:30;;;;;;;41;23;;;;;;;;;;;;;
2022/01/06 16:54:55;;;;;;;29.5;15.1;;;;;;;;;;;;;
2022/01/06 16:57:20;;;;;;;25;14.1;;;;;;;;;;;;;
2022/01/06 16:59:46;;;;;;;9.9;5.6;;;;;;;;;;;;;
2022/01/06 17:02:11;;;;;;;9;5.1;;;;;;;;;;;;;
2022/01/06 17:04:37;;;;;;;7.8;5.1;;;;;;;;;;;;;
2022/01/06 17:07:02;;;;;;;7.1;4.4;;;;;;;;;;;;;
2022/01/06 17:09:29;;;;;;;10;7.2;;;;;;;;;;;;;
2022/01/06 17:11:54;;;;;;;138.5;75.4;;;;;;;;;;;;;
2022/01/06 17:14:20;;;;;;;32.8;20.4;;;;;;;;;;;;;
2022/01/06 17:16:45;;;;;;;25.2;14.4;;;;;;;;;;;;;
2022/01/06 17:19:11;;;;;;;12.7;7;;;;;;;;;;;;;
2022/01/06 17:21:36;;;;;;;13.6;7.4;;;;;;;;;;;;;
2022/01/06 17:24:03;;;;;;;11.2;6.6;;;;;;;;;;;;;
2022/01/06 17:26:28;;;;;;;10.5;6.9;;;;;;;;;;;;;
2022/01/06 17:28:54;;;;;;;13.7;7.4;;;;;;;;;;;;;
2022/01/06 17:31:19;;;;;;;11.7;6.9;;;;;;;;;;;;;
2022/01/06 17:33:45;;;;;;;10.1;6.8;;;;;;;;;;;;;
2022/01/06 17:36:10;;;;;;;11.9;7.3;;;;;;;;;;;;;
2022/01/06 17:38:36;;;;;;;13.1;8.3;;;;;;;;;;;;;
2022/01/06 17:41:01;;;;;;;23;14.3;;;;;;;;;;;;;
2022/01/06 17:43:27;;;;;;;20.5;13;;;;;;;;;;;;;
2022/01/06 17:45:52;;;;;;;24.5;15.5;;;;;;;;;;;;;
2022/01/06 17:48:17;;;;;;;22.3;13.8;;;;;;;;;;;;;
2022/01/06 17:50:43;;;;;;;25.5;15.4;;;;;;;;;;;;;
2022/01/06 17:53:09;;;;;;;32.9;18.9;;;;;;;;;;;;;
2022/01/06 17:55:34;;;;;;;42;23.4;;;;;;;;;;;;;
2022/01/06 17:58:01;;;;;;;23;13.9;;;;;;;;;;;;;
2022/01/06 18:00:26;;;;;;;25.2;14.6;;;;;;;;;;;;;
2022/01/06 18:02:52;;;;;;;32.6;19.8;;;;;;;;;;;;;
2022/01/06 18:05:20;;;;;;;58.5;33.4;;;;;;;;;;;;;
2022/01/06 18:07:48;;;;;;;43.8;24.3;;;;;;;;;;;;;
2022/01/06 18:12:33;;;;;;;20.1;11.9;;;;;;;;;;;;;
2022/01/06 18:14:59;;;;;;;22.4;13.6;;;;;;;;;;;;;
2022/01/06 18:17:25;;;;;;;15;10.6;;;;;;;;;;;;;
2022/01/06 18:19:50;;;;;;;16.2;10.6;;;;;;;;;;;;;
2022/01/06 18:22:15;;;;;;;14;9.7;;;;;;;;;;;;;
2022/01/06 18:24:42;;;;;;;12.5;8.8;;;;;;;;;;;;;
2022/01/06 18:27:07;;;;;;;14.9;8.7;;;;;;;;;;;;;
2022/01/06 18:29:33;;;;;;;53.6;27.1;;;;;;;;;;;;;
2022/01/06 18:31:57;;;;;;;77.5;35.1;;;;;;;;;;;;;
2022/01/06 18:34:24;;;;;;;49;22.9;;;;;;;;;;;;;
2022/01/06 18:36:49;;;;;;;60.9;27.9;;;;;;;;;;;;;
2022/01/06 18:39:15;;;;;;;59.4;34.5;;;;;;;;;;;;;
2022/01/06 18:41:40;;;;;;;50;27.6;;;;;;;;;;;;;
2022/01/06 18:44:06;;;;;;;51.1;30.8;;;;;;;;;;;;;
2022/01/06 18:46:31;;;;;;;30.9;18;;;;;;;;;;;;;
2022/01/06 18:48:56;;;;;;;22.7;15.3;;;;;;;;;;;;;
2022/01/06 18:51:23;;;;;;;18.6;12.7;;;;;;;;;;;;;
2022/01/06 18:53:52;;;;;;;15.6;11.7;;;;;;;;;;;;;
2022/01/06 18:56:13;;;;;;;14.4;10.8;;;;;;;;;;;;;
2022/01/06 18:58:39;;;;;;;13.4;9.4;;;;;;;;;;;;;
2022/01/06 19:01:04;;;;;;;15;9.6;;;;;;;;;;;;;
2022/01/06 19:03:30;;;;;;;15.4;9.1;;;;;;;;;;;;;
2022/01/06 19:05:56;;;;;;;14.9;9.3;;;;;;;;;;;;;
2022/01/06 19:08:23;;;;;;;14.2;8.9;;;;;;;;;;;;;
2022/01/06 19:10:48;;;;;;;14.7;9;;;;;;;;;;;;;
2022/01/06 19:13:13;;;;;;;15.1;9;;;;;;;;;;;;;
2022/01/06 19:15:38;;;;;;;12.7;8.7;;;;;;;;;;;;;
2022/01/06 19:18:05;;;;;;;38.7;21;;;;;;;;;;;;;
2022/01/06 19:20:31;;;;;;;36.3;21.2;;;;;;;;;;;;;
2022/01/06 19:22:56;;;;;;;85.2;56;;;;;;;;;;;;;
2022/01/06 19:25:21;;;;;;;43.3;30;;;;;;;;;;;;;
2022/01/06 19:27:47;;;;;;;23.4;14.3;;;;;;;;;;;;;
2022/01/06 19:30:12;;;;;;;139.9;85.6;;;;;;;;;;;;;
2022/01/06 19:32:41;;;;;;;170.2;85.7;;;;;;;;;;;;;
2022/01/06 19:35:03;;;;;;;19.4;11.8;;;;;;;;;;;;;
2022/01/06 19:37:29;;;;;;;19.6;11.6;;;;;;;;;;;;;
2022/01/06 19:39:54;;;;;;;22.1;12.7;;;;;;;;;;;;;
2022/01/06 19:42:19;;;;;;;21.2;12.1;;;;;;;;;;;;;
2022/01/06 19:44:45;;;;;;;23.5;12.8;;;;;;;;;;;;;
2022/01/06 19:47:11;;;;;;;102.5;49.8;;;;;;;;;;;;;
2022/01/06 19:49:38;;;;;;;19.3;11.3;;;;;;;;;;;;;
2022/01/06 19:52:02;;;;;;;23.7;13;;;;;;;;;;;;;
2022/01/06 19:54:28;;;;;;;23.6;12.8;;;;;;;;;;;;;
2022/01/06 19:56:53;;;;;;;24.3;13.5;;;;;;;;;;;;;
2022/01/06 19:59:21;;;;;;;18.3;10.1;;;;;;;;;;;;;
2022/01/06 20:01:46;;;;;;;10.8;5.7;;;;;;;;;;;;;
2022/01/06 20:04:11;;;;;;;13.7;6.5;;;;;;;;;;;;;
2022/01/06 20:06:36;;;;;;;15.6;7.2;;;;;;;;;;;;;
2022/01/06 20:09:01;;;;;;;23.1;9.7;;;;;;;;;;;;;
2022/01/06 20:11:28;;;;;;;13.4;8.5;;;;;;;;;;;;;
2022/01/06 20:13:53;;;;;;;27.2;14.8;;;;;;;;;;;;;